createdAt,value
2024-04-10T00:01:20.164Z,16.95
2024-04-10T00:03:51.312Z,14.85
2024-04-10T00:06:22.408Z,16.73
2024-04-10T00:08:53.749Z,17.45
2024-04-10T00:11:25.188Z,16.20
2024-04-10T00:13:56.595Z,19.27
2024-04-10T00:16:25.011Z,18.90
2024-04-10T00:18:56.563Z,16.42
2024-04-10T00:21:31.883Z,20.77
2024-04-10T00:24:02.954Z,19.90
2024-04-10T00:26:31.391Z,14.38
2024-04-10T00:29:02.531Z,16.80
2024-04-10T00:31:31.092Z,14.02
2024-04-10T00:34:02.187Z,12.27
2024-04-10T00:36:33.261Z,13.55
2024-04-10T00:39:04.517Z,18.83
2024-04-10T00:41:32.895Z,28.05
2024-04-10T00:44:04.147Z,17.00
2024-04-10T00:46:34.480Z,12.73
2024-04-10T00:49:05.566Z,18.10
2024-04-10T00:51:36.717Z,18.58
2024-04-10T00:54:08.778Z,14.75
2024-04-10T00:56:37.662Z,13.55
2024-04-10T00:59:09.105Z,23.10
2024-04-10T01:01:37.781Z,20.13
2024-04-10T01:04:09.146Z,18.10
2024-04-10T01:06:40.247Z,20.80
2024-04-10T01:09:11.360Z,16.80
2024-04-10T01:11:39.983Z,17.75
2024-04-10T01:14:10.967Z,18.80
2024-04-10T01:16:39.473Z,17.52
2024-04-10T01:19:10.555Z,19.00
2024-04-10T01:21:41.598Z,25.27
2024-04-10T01:24:15.327Z,19.00
2024-04-10T01:26:43.800Z,21.27
2024-04-10T01:29:14.863Z,20.15
2024-04-10T01:31:43.107Z,17.05
2024-04-10T01:34:14.377Z,20.20
2024-04-10T01:36:42.690Z,17.73
2024-04-10T01:39:16.397Z,21.88
2024-04-10T01:41:44.713Z,21.00
2024-04-10T01:44:15.725Z,23.90
2024-04-10T01:46:44.079Z,23.42
2024-04-10T01:49:16.132Z,19.40
2024-04-10T01:51:44.513Z,18.15
2024-04-10T01:54:18.205Z,21.38
2024-04-10T01:56:49.217Z,22.85
2024-04-10T01:59:17.735Z,16.40
2024-04-10T02:01:48.817Z,25.55
2024-04-10T02:04:17.293Z,23.52
2024-04-10T02:06:48.303Z,22.85
2024-04-10T02:09:19.357Z,22.00
2024-04-10T02:11:50.507Z,21.75
2024-04-10T02:14:19.140Z,27.02
2024-04-10T02:16:50.553Z,26.67
2024-04-10T02:19:19.091Z,37.95
2024-04-10T02:21:50.180Z,32.45
2024-04-10T02:24:21.413Z,27.95
2024-04-10T02:26:52.749Z,32.22
2024-04-10T02:29:21.108Z,37.75
2024-04-10T02:31:52.428Z,32.03
2024-04-10T02:34:20.955Z,37.92
2024-04-10T02:36:52.402Z,36.08
2024-04-10T02:39:23.472Z,48.88
2024-04-10T02:41:54.435Z,36.78
2024-04-10T02:44:22.971Z,57.55
2024-04-10T02:46:54.803Z,46.58
2024-04-10T02:49:23.172Z,75.32
2024-04-10T02:51:54.402Z,46.78
2024-04-10T02:54:25.488Z,54.38
2024-04-10T02:56:56.608Z,32.30
2024-04-10T02:59:25.032Z,44.75
2024-04-10T03:01:56.157Z,26.80
2024-04-10T03:04:24.584Z,45.95
2024-04-10T03:06:56.767Z,31.85
2024-04-10T03:09:30.651Z,27.92
2024-04-10T03:12:02.030Z,29.23
2024-04-10T03:14:33.340Z,23.00
2024-04-10T03:17:04.507Z,25.08
2024-04-10T03:19:32.932Z,28.30
2024-04-10T03:22:03.931Z,19.83
2024-04-10T03:24:34.905Z,23.27
2024-04-10T03:27:06.334Z,24.05
2024-04-10T03:29:34.694Z,20.48
2024-04-10T03:32:05.860Z,16.30
2024-04-10T03:34:34.318Z,13.93
2024-04-10T03:37:06.269Z,15.93
2024-04-10T03:39:37.284Z,18.55
2024-04-10T03:42:08.727Z,16.80
2024-04-10T03:44:42.501Z,16.08
2024-04-10T03:47:14.508Z,15.95
2024-04-10T03:49:45.675Z,13.75
2024-04-10T03:52:13.915Z,21.23
2024-04-10T03:54:47.623Z,14.50
2024-04-10T03:57:15.988Z,18.55
2024-04-10T03:59:47.111Z,21.17
2024-04-10T04:02:18.472Z,12.63
2024-04-10T04:04:49.686Z,16.30
2024-04-10T04:07:18.043Z,15.32
2024-04-10T04:09:51.942Z,16.33
2024-04-10T04:12:22.358Z,10.80
2024-04-10T04:14:54.495Z,18.13
2024-04-10T04:17:24.323Z,18.50
2024-04-10T04:19:55.737Z,10.82
2024-04-10T04:22:24.102Z,18.05
2024-04-10T04:24:58.255Z,12.85
2024-04-10T04:27:33.799Z,16.52
2024-04-10T04:30:05.022Z,14.95
2024-04-10T04:32:34.274Z,12.48
2024-04-10T04:35:06.293Z,10.10
2024-04-10T04:37:34.625Z,13.40
2024-04-10T04:40:11.997Z,9.88
2024-04-10T04:42:40.304Z,10.73
2024-04-10T04:45:11.802Z,12.60
2024-04-10T04:47:40.164Z,13.07
2024-04-10T04:50:12.856Z,12.90
2024-04-10T04:52:41.245Z,20.23
2024-04-10T04:55:14.985Z,15.85
2024-04-10T04:57:43.333Z,15.05
2024-04-10T05:00:16.121Z,17.25
2024-04-10T05:02:44.798Z,11.98
2024-04-10T05:05:17.289Z,17.73
2024-04-10T05:07:46.865Z,11.75
2024-04-10T05:10:21.461Z,13.70
2024-04-10T05:12:51.913Z,18.35
2024-04-10T05:15:22.968Z,11.23
2024-04-10T05:17:53.250Z,13.75
2024-04-10T05:20:24.659Z,14.23
2024-04-10T05:22:53.137Z,11.52
2024-04-10T05:25:27.021Z,11.90
2024-04-10T05:27:55.412Z,14.25
2024-04-10T05:30:26.669Z,15.73
2024-04-10T05:32:58.039Z,15.15
2024-04-10T05:35:27.831Z,14.68
2024-04-10T05:38:00.924Z,17.75
2024-04-10T05:40:32.000Z,13.85
2024-04-10T05:43:03.996Z,16.05
2024-04-10T05:45:32.384Z,16.63
2024-04-10T05:48:03.613Z,17.90
2024-04-10T05:50:32.060Z,16.45
2024-04-10T05:53:04.829Z,16.92
2024-04-10T05:55:36.601Z,16.90
2024-04-10T05:58:07.850Z,15.32
2024-04-10T06:00:38.105Z,22.17
2024-04-10T06:03:09.592Z,19.15
2024-04-10T06:05:38.200Z,25.77
2024-04-10T06:08:10.171Z,22.35
2024-04-10T06:10:41.280Z,18.70
2024-04-10T06:13:12.243Z,25.02
2024-04-10T06:16:02.473Z,20.52
2024-04-10T06:18:33.877Z,19.38
2024-04-10T06:21:03.086Z,25.83
2024-04-10T06:26:08.189Z,27.52
2024-04-10T06:28:36.706Z,29.50
2024-04-10T06:31:10.708Z,41.22
2024-04-10T06:36:28.529Z,29.15
2024-04-10T06:38:56.767Z,32.78
2024-04-10T06:41:31.020Z,41.60
2024-04-10T06:43:59.645Z,36.95
2024-04-10T06:46:30.857Z,33.38
2024-04-10T06:48:59.491Z,37.10
2024-04-10T06:51:31.495Z,35.10
2024-04-10T06:53:59.861Z,33.97
2024-04-10T06:56:33.707Z,34.10
2024-04-10T06:59:02.795Z,37.22
2024-04-10T07:01:33.866Z,37.80
2024-04-10T07:04:04.899Z,35.53
2024-04-10T07:06:33.333Z,37.30
2024-04-10T07:09:04.408Z,36.97
2024-04-10T07:11:36.108Z,40.22
2024-04-10T07:14:07.351Z,35.17
2024-04-10T07:16:38.747Z,42.00
2024-04-10T07:19:08.744Z,39.22
2024-04-10T07:21:39.799Z,33.17
2024-04-10T07:24:09.542Z,43.53
2024-04-10T07:26:44.203Z,41.38
2024-04-10T07:29:12.779Z,42.67
2024-04-10T07:31:43.871Z,35.00
2024-04-10T07:34:16.066Z,41.33
2024-04-10T07:36:50.101Z,39.50
2024-04-10T07:39:20.569Z,43.35
2024-04-10T07:41:54.911Z,40.53
2024-04-10T07:44:23.572Z,34.30
2024-04-10T07:46:54.725Z,37.17
2024-04-10T07:49:23.268Z,30.23
2024-04-10T07:51:54.447Z,34.33
2024-04-10T07:54:22.833Z,29.40
2024-04-10T07:56:56.579Z,30.23
2024-04-10T07:59:24.927Z,26.73
2024-04-10T08:01:56.080Z,30.45
2024-04-10T08:04:25.042Z,28.15
2024-04-10T08:06:57.477Z,29.65
2024-04-10T08:09:25.985Z,25.73
2024-04-10T08:11:59.981Z,23.23
2024-04-10T08:14:28.487Z,23.05
2024-04-10T08:16:59.672Z,22.42
2024-04-10T08:19:28.087Z,22.88
2024-04-10T08:21:59.258Z,17.63
2024-04-10T08:24:28.291Z,18.35
2024-04-10T08:27:07.460Z,19.52
2024-04-10T08:29:38.171Z,19.17
2024-04-10T08:32:10.066Z,22.80
2024-04-10T08:34:38.746Z,19.55
2024-04-10T08:37:10.003Z,17.38
2024-04-10T08:39:39.369Z,21.60
2024-04-10T08:42:17.963Z,16.75
2024-04-10T08:44:46.404Z,12.27
2024-04-10T08:47:19.199Z,11.52
2024-04-10T08:49:47.771Z,16.25
2024-04-10T08:52:20.576Z,13.40
2024-04-10T08:54:50.084Z,11.10
2024-04-10T08:57:24.028Z,14.55
2024-04-10T08:59:52.405Z,19.65
2024-04-10T09:02:23.914Z,18.10
2024-04-10T09:04:52.378Z,20.40
2024-04-10T09:07:23.739Z,17.27
2024-04-10T09:09:53.643Z,23.83
2024-04-10T09:12:30.663Z,21.13
2024-04-10T09:15:08.420Z,23.95
2024-04-10T09:17:39.571Z,22.65
2024-04-10T09:20:14.743Z,23.38
2024-04-10T09:22:45.771Z,22.38
2024-04-10T09:25:14.745Z,21.52
2024-04-10T09:30:16.304Z,23.27
2024-04-10T09:32:48.009Z,22.63
2024-04-10T09:35:16.753Z,17.02
2024-04-10T09:37:47.975Z,17.98
2024-04-10T09:40:16.569Z,20.15
2024-04-10T09:42:53.921Z,22.77
2024-04-10T09:45:27.619Z,19.45
2024-04-10T09:48:01.971Z,17.65
2024-04-10T09:50:36.435Z,21.05
2024-04-10T09:53:08.608Z,18.30
2024-04-10T09:55:39.913Z,17.92
2024-04-10T09:58:16.494Z,14.13
2024-04-10T10:00:45.283Z,17.08
2024-04-10T10:03:27.634Z,15.75
2024-04-10T10:06:03.697Z,14.43
2024-04-10T10:08:34.923Z,15.38
2024-04-10T10:11:04.496Z,10.35
2024-04-10T10:13:43.000Z,16.58
2024-04-10T10:16:12.771Z,15.05
2024-04-10T10:18:44.155Z,12.60
2024-04-10T10:21:12.862Z,15.90
2024-04-10T10:23:45.989Z,19.48
2024-04-10T10:26:17.967Z,21.08
2024-04-10T10:28:51.800Z,14.27
2024-04-10T10:31:20.730Z,16.98
2024-04-10T10:33:52.984Z,14.85
2024-04-10T10:36:21.501Z,18.02
2024-04-10T10:38:53.498Z,11.65
2024-04-10T10:41:21.917Z,13.63
2024-04-10T10:44:02.217Z,12.45
2024-04-10T10:46:30.775Z,15.50
2024-04-10T10:49:02.052Z,15.70
2024-04-10T10:51:31.359Z,11.88
2024-04-10T10:54:02.493Z,10.35
2024-04-10T10:56:32.137Z,10.93
2024-04-10T10:59:15.914Z,16.13
2024-04-10T11:01:44.325Z,10.18
2024-04-10T11:04:18.185Z,12.63
2024-04-10T11:06:46.898Z,19.10
2024-04-10T11:09:19.674Z,11.60
2024-04-10T11:11:48.147Z,13.25
2024-04-10T11:14:28.116Z,12.27
2024-04-10T11:16:59.969Z,10.45
2024-04-10T11:19:42.616Z,13.32
2024-04-10T11:22:21.958Z,13.18
2024-04-10T11:24:55.397Z,16.40
2024-04-10T11:27:23.925Z,17.70
2024-04-10T11:29:57.747Z,14.80
2024-04-10T11:32:26.278Z,15.43
2024-04-10T11:34:59.908Z,15.10
2024-04-10T11:37:28.408Z,11.63
2024-04-10T11:40:01.692Z,14.13
2024-04-10T11:42:31.685Z,15.52
2024-04-10T11:45:05.469Z,17.10
2024-04-10T11:47:34.786Z,16.15
2024-04-10T11:50:06.191Z,16.38
2024-04-10T11:52:35.824Z,14.77
2024-04-10T11:55:10.988Z,15.30
2024-04-10T11:57:42.123Z,15.93
2024-04-10T12:00:16.061Z,16.92
2024-04-10T12:02:47.264Z,15.30
2024-04-10T12:05:16.055Z,12.93
2024-04-10T12:07:49.694Z,16.55
2024-04-10T12:10:18.031Z,16.42
2024-04-10T12:12:52.806Z,15.77
2024-04-10T12:15:24.148Z,13.02
2024-04-10T12:17:55.416Z,15.30
2024-04-10T12:20:25.335Z,19.77
2024-04-10T12:22:56.463Z,17.10
2024-04-10T12:25:25.234Z,19.92
2024-04-10T12:30:27.229Z,17.48
2024-04-10T12:32:58.645Z,18.10
2024-04-10T12:35:47.942Z,21.38
2024-04-10T12:38:19.071Z,18.48
2024-04-10T12:41:00.275Z,16.98
2024-04-10T12:43:31.560Z,16.17
2024-04-10T12:46:05.477Z,16.27
2024-04-10T12:48:34.415Z,16.27
2024-04-10T12:51:05.943Z,12.93
2024-04-10T12:53:34.499Z,17.85
2024-04-10T12:56:05.591Z,16.60
2024-04-10T12:58:34.878Z,13.68
2024-04-10T13:01:12.460Z,17.75
2024-04-10T13:03:41.255Z,18.20
2024-04-10T13:06:12.767Z,16.23
2024-04-10T13:08:41.175Z,16.50
2024-04-10T13:11:16.055Z,25.95
2024-04-10T13:13:45.047Z,20.30
2024-04-10T13:16:18.820Z,14.55
2024-04-10T13:18:47.514Z,16.42
2024-04-10T13:21:18.574Z,18.83
2024-04-10T13:23:48.330Z,18.30
2024-04-10T13:26:19.930Z,20.35
2024-04-10T13:28:50.127Z,17.08
2024-04-10T13:31:25.134Z,14.77
2024-04-10T13:33:57.292Z,15.35
2024-04-10T13:36:29.411Z,19.17
2024-04-10T13:38:58.194Z,16.52
2024-04-10T13:44:00.507Z,19.60
2024-04-10T13:46:34.393Z,22.10
2024-04-10T13:49:02.786Z,20.02
2024-04-10T13:51:34.081Z,17.90
2024-04-10T13:54:02.648Z,17.92
2024-04-10T13:56:33.967Z,20.15
2024-04-10T13:59:02.455Z,18.08
2024-04-10T14:01:37.623Z,18.23
2024-04-10T14:04:07.201Z,21.00
2024-04-10T14:06:38.394Z,16.00
2024-04-10T14:09:08.944Z,16.33
2024-04-10T14:11:40.558Z,17.85
2024-04-10T14:14:09.021Z,17.02
2024-04-10T14:16:49.313Z,16.42
2024-04-10T14:19:19.249Z,21.33
2024-04-10T14:21:50.412Z,14.75
2024-04-10T14:24:18.818Z,11.38
2024-04-10T14:26:50.012Z,18.75
2024-04-10T14:29:19.033Z,14.50
2024-04-10T14:34:20.713Z,17.17
2024-04-10T14:36:51.785Z,17.70
2024-04-10T14:39:20.212Z,19.10
2024-04-10T14:41:51.470Z,14.25
2024-04-10T14:44:38.290Z,10.90
2024-04-10T14:47:12.526Z,16.80
2024-04-10T14:49:41.118Z,15.18
2024-04-10T14:52:12.599Z,15.80
2024-04-10T14:54:43.829Z,13.18
2024-04-10T14:57:34.753Z,20.90
2024-04-10T15:00:25.720Z,14.90
2024-04-10T15:02:59.619Z,12.82
2024-04-10T15:05:28.066Z,13.50
2024-04-10T15:07:59.177Z,17.10
2024-04-10T15:10:27.518Z,16.45
2024-04-10T15:12:58.507Z,16.60
2024-04-10T15:15:26.865Z,15.93
2024-04-10T15:18:00.811Z,15.57
2024-04-10T15:20:29.341Z,15.23
2024-04-10T15:23:00.505Z,13.73
2024-04-10T15:25:28.853Z,17.00
2024-04-10T15:28:01.239Z,9.88
2024-04-10T15:30:29.746Z,15.35
2024-04-10T15:33:03.759Z,14.68
2024-04-10T15:35:32.320Z,12.70
2024-04-10T15:38:03.338Z,13.82
2024-04-10T15:40:31.725Z,12.20
2024-04-10T15:43:03.726Z,12.95
2024-04-10T15:45:32.106Z,13.45
2024-04-10T15:48:05.931Z,10.50
2024-04-10T15:50:34.440Z,12.27
2024-04-10T15:53:05.881Z,13.88
2024-04-10T15:55:34.291Z,14.88
2024-04-10T15:58:05.481Z,11.30
2024-04-10T16:00:33.799Z,12.07
2024-04-10T16:03:07.920Z,13.85
2024-04-10T16:05:38.414Z,12.50
2024-04-10T16:08:10.617Z,17.88
2024-04-10T16:10:40.061Z,17.40
2024-04-10T16:13:11.358Z,14.80
2024-04-10T16:15:39.720Z,21.00
2024-04-10T16:18:14.906Z,14.20
2024-04-10T16:20:44.105Z,12.80
2024-04-10T16:23:16.195Z,12.98
2024-04-10T16:25:44.529Z,10.25
2024-04-10T16:28:15.640Z,12.77
2024-04-10T16:30:43.912Z,16.45
2024-04-10T16:33:18.003Z,12.35
2024-04-10T16:35:47.193Z,11.55
2024-04-10T16:40:46.316Z,11.55
2024-04-10T16:43:17.324Z,12.55
2024-04-10T16:45:54.186Z,15.32
2024-04-10T16:48:28.320Z,12.75
2024-04-10T16:50:57.957Z,9.70
2024-04-10T16:53:29.663Z,13.95
2024-04-10T16:55:58.402Z,13.90
2024-04-10T16:58:29.642Z,13.15
2024-04-10T17:01:08.913Z,11.95
2024-04-10T17:03:45.342Z,9.63
2024-04-10T17:06:14.037Z,12.35
2024-04-10T17:08:45.353Z,16.50
2024-04-10T17:11:17.611Z,13.77
2024-04-10T17:13:49.753Z,14.07
2024-04-10T17:16:18.193Z,17.05
2024-04-10T17:19:08.134Z,13.63
2024-04-10T17:21:58.467Z,13.90
2024-04-10T17:24:29.753Z,13.75
2024-04-10T17:26:58.346Z,14.75
2024-04-10T17:29:30.117Z,23.17
2024-04-10T17:32:19.966Z,14.65
2024-04-10T17:34:54.165Z,18.58
2024-04-10T17:37:23.016Z,14.70
2024-04-10T17:39:54.108Z,14.45
2024-04-10T17:42:22.976Z,16.58
2024-04-10T17:44:54.134Z,17.25
2024-04-10T17:47:22.773Z,15.82
2024-04-10T17:49:56.606Z,16.10
2024-04-10T17:52:25.398Z,15.18
2024-04-10T17:54:56.560Z,16.98
2024-04-10T17:57:24.979Z,16.83
2024-04-10T17:59:56.322Z,16.00
2024-04-10T18:02:24.779Z,22.15
2024-04-10T18:04:58.650Z,14.95
2024-04-10T18:07:27.094Z,19.50
2024-04-10T18:10:01.243Z,22.33
2024-04-10T18:12:33.454Z,18.60
2024-04-10T18:15:05.078Z,14.13
2024-04-10T18:17:34.245Z,17.98
2024-04-10T18:20:08.581Z,25.15
2024-04-10T18:22:36.963Z,14.77
2024-04-10T18:25:08.933Z,16.88
2024-04-10T18:27:40.501Z,18.40
2024-04-10T18:30:12.856Z,16.52
2024-04-10T18:32:41.478Z,20.65
2024-04-10T18:35:15.385Z,22.05
2024-04-10T18:37:43.729Z,18.05
2024-04-10T18:40:15.152Z,25.88
2024-04-10T18:42:43.618Z,27.67
2024-04-10T18:45:17.896Z,33.03
2024-04-10T18:47:47.857Z,25.30
2024-04-10T18:50:22.149Z,31.02
2024-04-10T18:52:50.512Z,27.77
2024-04-10T18:55:21.560Z,20.10
2024-04-10T18:57:49.909Z,22.95
2024-04-10T19:00:21.476Z,18.67
2024-04-10T19:02:49.929Z,20.70
2024-04-10T19:05:23.769Z,14.77
2024-04-10T19:07:52.095Z,18.55
2024-04-10T19:10:23.500Z,21.55
2024-04-10T19:12:52.437Z,19.25
2024-04-10T19:15:23.639Z,16.05
2024-04-10T19:17:53.991Z,18.60
2024-04-10T19:20:28.125Z,18.90
2024-04-10T19:22:56.630Z,15.48
2024-04-10T19:25:27.662Z,21.15
2024-04-10T19:27:56.046Z,22.23
2024-04-10T19:30:27.230Z,16.10
2024-04-10T19:32:57.346Z,18.23
2024-04-10T19:35:31.180Z,18.73
2024-04-10T19:37:59.548Z,20.40
2024-04-10T19:40:30.776Z,19.63
2024-04-10T19:42:59.586Z,15.35
2024-04-10T19:45:30.676Z,15.93
2024-04-10T19:47:59.844Z,22.00
2024-04-10T19:50:33.640Z,17.52
2024-04-10T19:53:02.113Z,18.42
2024-04-10T19:55:33.175Z,17.85
2024-04-10T19:58:02.159Z,17.05
2024-04-10T20:00:33.185Z,17.60
2024-04-10T20:03:05.394Z,19.00
2024-04-10T20:05:39.295Z,15.95
2024-04-10T20:08:08.262Z,18.40
2024-04-10T20:10:39.230Z,18.75
2024-04-10T20:13:07.544Z,16.75
2024-04-10T20:15:38.586Z,17.52
2024-04-10T20:18:26.200Z,20.58
2024-04-10T20:21:08.041Z,17.13
2024-04-10T20:23:37.460Z,19.63
2024-04-10T20:26:09.366Z,18.50
2024-04-10T20:28:38.028Z,20.15
2024-04-10T20:31:10.438Z,20.30
2024-04-10T20:33:40.242Z,27.13
2024-04-10T20:36:15.104Z,17.33
2024-04-10T20:38:43.991Z,17.65
2024-04-10T20:41:17.327Z,22.58
2024-04-10T20:43:46.441Z,17.90
2024-04-10T20:46:17.535Z,16.52
2024-04-10T20:48:49.761Z,15.20
2024-04-10T20:51:24.583Z,18.38
2024-04-10T20:53:52.901Z,14.35
2024-04-10T20:56:24.379Z,18.48
2024-04-10T20:58:52.810Z,19.35
2024-04-10T21:01:24.015Z,16.27
2024-04-10T21:03:53.322Z,22.88
2024-04-10T21:06:24.183Z,13.63
2024-04-10T21:09:10.949Z,27.73
2024-04-10T21:11:57.928Z,20.02
2024-04-10T21:14:44.955Z,16.30
2024-04-10T21:17:33.379Z,19.52
2024-04-10T21:20:20.114Z,19.48
2024-04-10T21:23:09.823Z,17.20
2024-04-10T21:25:56.801Z,14.00
2024-04-10T21:28:43.559Z,14.48
2024-04-10T21:31:30.147Z,20.40
2024-04-10T21:34:17.082Z,17.05
2024-04-10T21:37:03.704Z,12.02
2024-04-10T21:39:52.944Z,13.30
2024-04-10T21:42:39.887Z,18.33
2024-04-10T21:45:27.136Z,20.98
2024-04-10T21:48:14.263Z,20.38
2024-04-10T21:51:01.474Z,16.42
2024-04-10T21:53:48.300Z,13.88
2024-04-10T21:56:38.065Z,20.33
2024-04-10T21:59:25.004Z,21.58
2024-04-10T22:05:00.939Z,16.23
2024-04-10T22:07:54.241Z,13.90
2024-04-10T22:10:30.166Z,11.35
2024-04-10T22:13:03.872Z,12.48
2024-04-10T22:15:35.613Z,15.57
2024-04-10T22:18:21.686Z,21.95
2024-04-10T22:21:09.711Z,15.10
2024-04-10T22:23:56.386Z,19.27
2024-04-10T22:27:08.928Z,17.10
2024-04-10T22:29:42.776Z,14.20
2024-04-10T22:32:14.476Z,14.18
2024-04-10T22:34:42.905Z,12.13
2024-04-10T22:37:14.451Z,13.68
2024-04-10T22:39:42.738Z,13.18
2024-04-10T22:42:15.610Z,11.27
2024-04-10T22:44:50.974Z,11.82
2024-04-10T22:47:22.324Z,10.95
2024-04-10T22:49:52.430Z,12.82
2024-04-10T22:52:23.495Z,11.75
2024-04-10T22:54:51.831Z,16.00
2024-04-10T22:57:22.795Z,15.18
2024-04-10T22:59:53.845Z,11.90
2024-04-10T23:02:25.489Z,13.20
2024-04-10T23:04:54.090Z,16.30
2024-04-10T23:08:01.505Z,18.10
2024-04-10T23:10:13.356Z,12.45
2024-04-10T23:12:44.529Z,9.85
2024-04-10T23:15:15.604Z,15.05
2024-04-10T23:17:46.773Z,14.07
2024-04-10T23:20:15.767Z,11.48
2024-04-10T23:22:48.092Z,11.48
2024-04-10T23:25:16.562Z,11.38
2024-04-10T23:27:47.550Z,14.00
2024-04-10T23:30:18.559Z,13.07
2024-04-10T23:32:49.761Z,9.48
2024-04-10T23:35:18.235Z,12.10
2024-04-10T23:37:50.855Z,15.70
2024-04-10T23:40:19.203Z,13.30
2024-04-10T23:42:50.302Z,13.88
2024-04-10T23:45:21.276Z,15.35
2024-04-10T23:47:52.337Z,13.10
2024-04-10T23:50:20.718Z,14.98
2024-04-10T23:52:51.749Z,12.07
2024-04-10T23:55:20.081Z,13.10
2024-04-10T23:57:51.021Z,13.88
